Hesper, Montana
Current Conditions -  °F | °C
As of 4:53 AM on Wednesday 28 Jan 2015 (Local Time) from KBIL Reporting Station
Overcast Overcast  
Wind Chill: 40°   Ceiling: 9000
Heat Index: 47°   Visibility: 10mi
Dew Point: 31°   Wind: 16mph
Humidity: 54%   Direction: 230°SW
Pressure: 29.94"   Gusts: NA
Location:  45.7752°N, 108.58°W
Report Text: KBIL 281153Z 23014KT 10SM OVC090 08/M01 A2994 RMK AO2 SLP134 T00831006 10111 20078 53012
Loading
Personal Weather Stations






























Interactive Weather Map New forecast layout! Learn more

10-Day Weather Forecast

Advertisements
Track Severe Weather on mobile